Time;durP1;ratioP1;P1;durP2;ratioP2;P2;SDS_P1;SDS_P2;PMS_P1;PMS_P2;Temp;Humidity;BMP_temperature;BMP_pressure;BME280_temperature;BME280_humidity;BME280_pressure;Samples;Min_cycle;Max_cycle;Signal;HPM_P1;HPM_P2
2023/12/21 00:00:12;;;;;;;1.73;0.80;;;7.80;61.30;;;2.92;88.14;95714.66;4932178;29;20035;-51
2023/12/21 00:02:38;;;;;;;0.70;0.70;;;7.90;61.30;;;2.95;88.40;95708.97;4931428;29;20078;-51
2023/12/21 00:05:05;;;;;;;1.85;0.70;;;7.90;61.20;;;2.97;88.39;95706.94;4932134;29;20027;-50
2023/12/21 00:07:31;;;;;;;2.60;0.93;;;7.90;61.20;;;2.97;88.71;95710.34;4932176;29;20446;-53
2023/12/21 00:09:57;;;;;;;2.42;0.75;;;7.90;61.20;;;2.97;89.36;95704.28;4945026;28;20023;-52
2023/12/21 00:12:23;;;;;;;3.33;1.00;;;7.90;61.30;;;2.98;89.63;95700.66;4932161;29;20033;-53
2023/12/21 00:14:48;;;;;;;1.80;0.88;;;7.90;61.20;;;2.99;89.72;95681.22;4931165;29;20453;-50
2023/12/21 00:17:14;;;;;;;1.73;0.80;;;7.90;61.20;;;2.99;90.00;95692.53;4931987;29;20031;-51
2023/12/21 00:19:40;;;;;;;1.48;1.10;;;7.90;61.20;;;3.00;89.16;95691.50;4932072;29;20078;-51
2023/12/21 00:22:06;;;;;;;2.08;0.80;;;7.90;61.30;;;2.98;88.84;95696.19;4931415;29;20046;-50
2023/12/21 00:24:32;;;;;;;1.70;0.85;;;7.90;61.20;;;3.03;90.16;95692.09;4931726;29;20026;-50
2023/12/21 00:26:58;;;;;;;0.82;0.70;;;7.90;61.20;;;3.03;91.12;95689.47;4932098;29;20035;-52
2023/12/21 00:29:24;;;;;;;4.45;1.08;;;7.90;61.30;;;3.00;90.65;95688.88;4946418;28;20046;-54
2023/12/21 00:31:49;;;;;;;1.05;0.80;;;7.90;61.30;;;2.96;89.69;95666.66;4932260;29;20494;-52
2023/12/21 00:34:15;;;;;;;3.97;1.10;;;7.90;61.20;;;3.00;90.15;95665.19;4930825;29;20031;-52
2023/12/21 00:36:42;;;;;;;1.73;1.00;;;7.90;62.00;;;3.05;90.49;95658.50;4932015;29;20515;-53
2023/12/21 00:39:08;;;;;;;1.20;0.75;;;8.00;61.30;;;3.05;90.89;95666.41;4931569;29;20385;-53
2023/12/21 00:41:34;;;;;;;3.55;0.73;;;7.90;62.20;;;3.03;90.82;95677.13;4931761;29;20033;-50
2023/12/21 00:43:59;;;;;;;0.80;0.60;;;7.90;61.30;;;3.04;90.65;95672.66;4933995;29;20027;-51
2023/12/21 00:46:25;;;;;;;1.58;0.70;;;8.00;61.40;;;3.05;90.36;95667.19;4934963;29;20035;-51
2023/12/21 00:48:51;;;;;;;3.63;0.77;;;8.00;61.40;;;3.07;89.86;95667.81;4935976;29;20033;-51
2023/12/21 00:51:17;;;;;;;1.35;0.80;;;7.90;61.30;;;3.06;90.60;95662.72;4933885;29;20313;-52
2023/12/21 00:53:43;;;;;;;3.47;0.82;;;8.00;61.30;;;3.07;90.23;95656.44;4935498;29;20054;-50
2023/12/21 00:56:08;;;;;;;1.95;0.77;;;8.00;61.40;;;3.01;91.07;95664.19;4934737;29;20474;-55
2023/12/21 00:58:34;;;;;;;2.38;0.90;;;8.00;61.30;;;3.06;91.13;95663.53;4935458;29;20126;-55
2023/12/21 01:01:00;;;;;;;1.88;0.75;;;8.00;62.00;;;3.08;91.70;95668.59;4935574;29;20029;-53
2023/12/21 01:03:26;;;;;;;2.22;0.73;;;8.00;61.30;;;3.09;91.36;95667.56;4936030;28;20023;-55
2023/12/21 01:08:28;;;;;;;1.98;1.10;;;8.00;61.30;;;3.07;92.24;95670.44;4990817;28;20064;-53
2023/12/21 01:10:54;;;;;;;1.80;0.88;;;8.00;61.30;;;3.11;92.34;95668.97;4992301;28;20026;-57
2023/12/21 01:13:21;;;;;;;1.23;0.60;;;8.00;61.40;;;3.13;92.25;95668.75;4993795;28;20406;-54
2023/12/21 01:15:47;;;;;;;2.78;1.00;;;8.00;61.40;;;3.13;92.10;95666.09;4976049;28;20032;-55
2023/12/21 01:18:13;;;;;;;1.33;0.95;;;8.00;61.40;;;3.14;92.29;95667.75;4991665;28;20120;-53
2023/12/21 01:20:38;;;;;;;1.00;0.70;;;8.10;61.40;;;3.17;92.16;95667.31;4991059;28;20520;-50
2023/12/21 01:23:04;;;;;;;1.45;0.80;;;8.10;61.50;;;3.18;92.85;95671.53;4992405;28;20077;-52
2023/12/21 01:25:30;;;;;;;1.73;0.65;;;8.10;61.50;;;3.18;92.68;95672.34;4991830;28;20129;-52
2023/12/21 01:27:56;;;;;;;2.45;0.85;;;8.10;61.50;;;3.18;92.31;95666.28;4990837;28;20156;-55
2023/12/21 01:30:23;;;;;;;1.17;0.70;;;8.10;61.50;;;3.21;92.83;95668.47;4992190;28;20030;-51
2023/12/21 01:32:49;;;;;;;0.95;0.65;;;8.10;61.50;;;3.21;93.07;95660.59;4991114;28;20040;-50
2023/12/21 01:35:15;;;;;;;0.93;0.70;;;8.10;61.50;;;3.24;93.56;95657.53;4991777;28;20021;-50
2023/12/21 01:37:41;;;;;;;1.85;0.88;;;8.10;61.60;;;3.25;92.69;95640.69;4991542;28;20180;-50
2023/12/21 01:40:07;;;;;;;2.55;0.75;;;8.10;61.60;;;3.25;93.40;95652.03;4990770;28;20029;-52
2023/12/21 01:42:33;;;;;;;0.93;0.73;;;8.10;61.70;;;3.27;93.69;95648.38;4991675;28;20026;-53
2023/12/21 01:44:59;;;;;;;1.38;0.88;;;8.20;61.80;;;3.25;94.29;95654.66;4990798;28;20491;-50
2023/12/21 01:47:25;;;;;;;1.17;0.90;;;8.20;61.90;;;3.28;94.14;95655.25;4991426;28;20053;-57
2023/12/21 01:49:52;;;;;;;0.95;0.77;;;8.20;62.00;;;3.29;94.72;95647.16;5007459;28;20045;-51
2023/12/21 01:52:20;;;;;;;2.55;0.88;;;8.10;62.10;;;3.27;94.96;95643.91;4990615;28;20041;-53
2023/12/21 01:54:47;;;;;;;0.70;0.70;;;8.10;62.10;;;3.27;94.72;95641.28;4991129;28;20443;-56
2023/12/21 01:57:13;;;;;;;2.85;0.73;;;8.10;62.20;;;3.29;94.21;95617.38;4988995;28;20045;-51
2023/12/21 01:59:40;;;;;;;1.40;0.70;;;8.10;62.30;;;3.25;94.07;95609.91;4990500;28;20450;-55
2023/12/21 02:02:06;;;;;;;1.27;0.73;;;8.10;62.30;;;3.29;94.37;95604.19;4991378;28;20026;-55
2023/12/21 02:04:32;;;;;;;1.17;0.60;;;8.10;62.30;;;3.32;96.10;95612.50;4991142;28;20071;-50
2023/12/21 02:06:58;;;;;;;2.22;0.98;;;8.10;62.40;;;3.29;96.25;95610.28;4990840;28;20045;-52
2023/12/21 02:09:25;;;;;;;0.90;0.80;;;8.10;62.50;;;3.25;96.63;95598.56;4987693;28;20021;-52
2023/12/21 02:11:50;;;;;;;0.80;0.80;;;8.10;62.60;;;3.25;96.97;95602.00;5006992;28;20026;-50
2023/12/21 02:14:16;;;;;;;2.63;0.85;;;8.10;62.70;;;3.27;97.85;95607.06;4990763;28;20125;-51
2023/12/21 02:17:01;;;;;;;1.50;0.77;;;8.10;62.90;;;3.27;97.58;95619.44;4989510;28;20025;-50
2023/12/21 02:19:28;;;;;;;2.45;0.85;;;8.00;62.90;;;3.28;97.11;95597.31;5005633;28;20022;-50
2023/12/21 02:21:59;;;;;;;1.95;0.90;;;8.00;63.00;;;3.29;97.38;95598.94;4990228;28;20041;-50
2023/12/21 02:24:26;;;;;;;1.75;1.02;;;8.00;63.10;;;3.28;97.15;95582.34;5005785;28;20033;-49
2023/12/21 02:26:53;;;;;;;1.80;0.80;;;8.00;63.20;;;3.28;97.71;95581.53;4988627;28;20033;-50
2023/12/21 02:29:18;;;;;;;2.05;0.77;;;8.00;63.20;;;3.25;97.50;95566.97;5005714;28;20034;-53
2023/12/21 02:31:44;;;;;;;0.70;0.70;;;8.00;63.30;;;3.30;98.30;95556.59;4990942;28;20017;-52
2023/12/21 02:34:10;;;;;;;0.70;0.70;;;8.10;63.40;;;3.27;97.21;95545.72;4989845;28;20029;-50
2023/12/21 02:36:36;;;;;;;0.82;0.70;;;8.10;63.40;;;3.26;97.00;95537.00;4990441;28;20076;-51
2023/12/21 02:39:02;;;;;;;1.88;0.80;;;8.10;63.40;;;3.32;97.10;95556.38;4989472;28;20044;-50
2023/12/21 02:41:28;;;;;;;0.90;0.80;;;8.10;63.30;;;3.37;97.65;95561.78;4990945;28;20025;-50
2023/12/21 02:43:53;;;;;;;0.85;0.80;;;8.10;63.40;;;3.33;96.63;95558.78;4990740;28;20026;-50
2023/12/21 02:46:20;;;;;;;1.08;0.77;;;8.10;63.30;;;3.35;95.47;95562.00;4987475;28;20068;-54
2023/12/21 02:48:46;;;;;;;0.82;0.75;;;8.20;63.30;;;3.38;94.95;95556.28;4991051;28;20522;-49
2023/12/21 02:51:12;;;;;;;0.80;0.65;;;8.20;63.10;;;3.46;95.07;95552.56;4989171;28;20109;-51
2023/12/21 02:53:39;;;;;;;0.80;0.80;;;8.20;63.10;;;3.50;94.52;95556.38;4990457;28;20033;-52
2023/12/21 02:56:05;;;;;;;3.75;0.70;;;8.30;63.20;;;3.54;94.72;95546.19;4990387;28;20033;-49
2023/12/21 02:58:31;;;;;;;2.35;0.73;;;8.30;63.00;;;3.52;94.53;95535.09;4989755;28;20383;-49
2023/12/21 03:00:57;;;;;;;1.17;0.90;;;8.30;63.00;;;3.56;94.35;95529.16;4990858;28;20022;-51
2023/12/21 03:03:23;;;;;;;1.85;0.60;;;8.40;63.00;;;3.60;94.74;95532.94;4989782;28;20029;-51
2023/12/21 03:05:49;;;;;;;0.63;0.60;;;8.40;62.90;;;3.57;94.63;95529.94;4988770;28;20602;-53
2023/12/21 03:08:15;;;;;;;1.00;0.60;;;8.40;62.90;;;3.56;95.03;95513.34;4988450;28;20076;-49
2023/12/21 03:10:40;;;;;;;1.05;0.70;;;8.40;62.80;;;3.56;95.60;95517.81;4990696;28;20022;-50
2023/12/21 03:13:07;;;;;;;3.92;0.88;;;8.40;62.90;;;3.56;96.11;95518.63;5004669;28;20448;-50
2023/12/21 03:15:33;;;;;;;0.73;0.60;;;8.40;62.80;;;3.55;94.24;95503.84;4988877;28;20479;-50
2023/12/21 03:17:59;;;;;;;1.30;0.90;;;8.40;62.80;;;3.57;95.10;95501.78;4990308;28;20033;-52
2023/12/21 03:20:24;;;;;;;0.70;0.70;;;8.40;62.80;;;3.58;94.77;95505.25;4989050;28;20104;-55
2023/12/21 03:22:50;;;;;;;1.63;1.02;;;8.40;62.70;;;3.60;95.02;95501.34;4970464;28;20546;-55
2023/12/21 03:25:16;;;;;;;1.92;0.70;;;8.50;62.80;;;3.59;94.83;95507.63;4981831;28;20014;-55
2023/12/21 03:27:42;;;;;;;1.45;0.80;;;8.40;62.70;;;3.61;94.72;95495.06;4989591;28;20120;-49
2023/12/21 03:30:09;;;;;;;0.68;0.68;;;8.50;62.80;;;3.58;95.28;95477.06;4990348;28;20101;-50
2023/12/21 03:32:36;;;;;;;1.38;0.80;;;8.50;63.50;;;3.58;94.77;95457.81;4989119;28;20025;-53
2023/12/21 03:35:03;;;;;;;2.80;0.80;;;8.50;62.70;;;3.60;94.93;95459.19;4989497;28;20044;-55
2023/12/21 03:37:29;;;;;;;1.30;0.75;;;8.50;62.70;;;3.58;94.66;95450.72;4989789;28;20028;-50
2023/12/21 03:39:59;;;;;;;3.13;0.93;;;8.50;62.60;;;3.60;94.44;95439.94;4988125;28;20052;-51
2023/12/21 03:42:25;;;;;;;1.20;0.50;;;8.50;62.60;;;3.62;94.83;95424.72;4989583;28;20052;-54
2023/12/21 03:44:51;;;;;;;0.60;0.60;;;8.50;62.80;;;3.66;94.77;95415.34;4989826;28;20028;-51
2023/12/21 03:47:17;;;;;;;1.00;0.60;;;8.50;62.60;;;3.66;94.94;95413.50;4988207;28;20030;-53
2023/12/21 03:49:43;;;;;;;0.60;0.60;;;8.60;62.70;;;3.64;94.54;95422.69;4989794;28;20037;-54
2023/12/21 03:52:08;;;;;;;1.50;0.77;;;8.50;62.60;;;3.65;95.27;95429.56;4988621;28;20359;-51
2023/12/21 03:54:35;;;;;;;1.50;0.90;;;8.50;62.60;;;3.70;95.55;95422.59;4989122;28;20049;-54
2023/12/21 03:57:01;;;;;;;0.75;0.68;;;8.50;62.60;;;3.70;95.57;95427.06;4988837;28;20022;-52
2023/12/21 03:59:27;;;;;;;1.42;0.70;;;8.60;62.80;;;3.68;94.92;95429.09;4989650;28;20075;-51
2023/12/21 04:01:53;;;;;;;1.10;0.68;;;8.60;62.80;;;3.72;94.41;95425.78;4989583;28;20068;-49
2023/12/21 04:04:19;;;;;;;0.63;0.60;;;8.60;62.80;;;3.74;93.99;95408.97;4988358;28;20124;-53
2023/12/21 04:06:45;;;;;;;0.60;0.57;;;8.60;62.70;;;3.76;93.85;95422.69;4989004;28;20166;-51
2023/12/21 04:09:11;;;;;;;1.10;0.80;;;8.60;62.60;;;3.77;93.17;95417.22;4987303;28;20452;-50
2023/12/21 04:11:37;;;;;;;0.63;0.60;;;8.60;62.60;;;3.83;93.31;95421.59;5005989;28;20097;-56
2023/12/21 04:14:03;;;;;;;1.02;0.60;;;8.70;62.60;;;3.85;92.00;95424.78;4989877;28;20634;-50
2023/12/21 04:16:29;;;;;;;1.17;0.57;;;8.60;62.40;;;3.92;91.52;95414.16;4988807;28;20042;-51
2023/12/21 04:18:55;;;;;;;1.10;0.70;;;8.70;62.30;;;3.95;91.75;95411.06;4989186;28;20036;-51
2023/12/21 04:21:21;;;;;;;1.88;0.65;;;8.70;62.20;;;3.96;91.36;95404.78;4990988;28;20120;-51
2023/12/21 04:23:47;;;;;;;0.80;0.80;;;8.70;62.20;;;4.00;91.33;95398.00;4990559;28;20120;-53
2023/12/21 04:26:23;;;;;;;1.52;0.60;;;8.80;62.20;;;3.99;90.96;95404.31;4988841;28;20109;-54
2023/12/21 04:28:50;;;;;;;0.45;0.43;;;8.80;62.00;;;3.99;90.51;95398.25;4983651;28;20032;-57
2023/12/21 04:31:23;;;;;;;0.70;0.70;;;8.80;62.00;;;4.06;90.92;95396.28;4990274;28;20171;-56
2023/12/21 04:33:51;;;;;;;0.80;0.70;;;8.80;61.90;;;4.02;90.76;95388.03;4989449;28;20151;-52
2023/12/21 04:36:19;;;;;;;1.23;0.70;;;8.80;61.70;;;4.03;89.98;95389.63;4987032;28;20569;-52
2023/12/21 04:38:45;;;;;;;0.65;0.60;;;8.90;61.80;;;4.08;90.48;95378.44;4993317;28;20021;-54
2023/12/21 04:41:11;;;;;;;1.00;0.70;;;8.90;61.70;;;4.09;89.78;95377.38;4989897;28;20076;-52
2023/12/21 04:43:37;;;;;;;0.85;0.70;;;8.90;61.60;;;4.10;89.46;95381.63;4989969;28;20700;-53
2023/12/21 04:46:06;;;;;;;0.77;0.77;;;8.90;61.50;;;4.07;88.67;95361.00;4988523;28;20476;-50
2023/12/21 04:48:33;;;;;;;3.47;0.70;;;8.90;61.20;;;4.14;89.23;95370.41;4989917;28;20025;-49
2023/12/21 04:50:59;;;;;;;0.80;0.73;;;8.90;61.20;;;4.15;88.57;95371.19;4987864;28;20507;-51
2023/12/21 04:53:25;;;;;;;1.27;0.70;;;8.90;61.10;;;4.17;88.42;95363.88;4988970;28;20033;-51
2023/12/21 04:55:51;;;;;;;0.93;0.70;;;9.00;61.00;;;4.16;87.17;95360.41;4989593;28;20028;-51
2023/12/21 04:58:18;;;;;;;0.85;0.68;;;9.00;60.90;;;4.22;86.98;95353.44;4987933;28;20124;-52
2023/12/21 05:00:50;;;;;;;0.80;0.80;;;9.00;60.80;;;4.24;86.94;95351.38;4990167;28;20025;-53
2023/12/21 05:03:20;;;;;;;1.60;0.70;;;9.00;60.70;;;4.25;86.32;95339.78;4994528;28;20054;-50
2023/12/21 05:05:47;;;;;;;2.30;0.70;;;9.00;60.50;;;4.26;86.34;95346.69;4990203;28;20026;-50
2023/12/21 05:08:13;;;;;;;0.98;0.63;;;9.00;60.50;;;4.23;86.07;95344.50;4988668;28;20069;-54
2023/12/21 05:10:41;;;;;;;0.93;0.80;;;9.10;60.40;;;4.27;86.87;95343.00;4989840;28;20026;-50
2023/12/21 05:13:07;;;;;;;0.70;0.68;;;9.10;60.30;;;4.31;86.43;95344.13;4989946;28;20427;-52
2023/12/21 05:15:33;;;;;;;0.75;0.70;;;9.10;60.30;;;4.31;85.17;95335.44;4988877;28;20036;-52
2023/12/21 05:17:59;;;;;;;1.52;0.70;;;9.10;60.20;;;4.34;85.29;95319.94;4989862;28;20468;-50
2023/12/21 05:20:25;;;;;;;1.85;0.82;;;9.10;60.10;;;4.30;85.33;95321.44;4987914;28;20546;-50
2023/12/21 05:22:51;;;;;;;2.10;0.93;;;9.10;60.00;;;4.32;85.58;95327.28;4989558;28;20037;-50
2023/12/21 05:25:17;;;;;;;2.13;0.77;;;9.10;59.90;;;4.36;85.58;95330.28;4989395;28;20030;-53
2023/12/21 05:27:44;;;;;;;0.85;0.60;;;9.20;59.90;;;4.38;84.33;95322.91;4984712;28;20061;-53
2023/12/21 05:30:10;;;;;;;2.67;0.77;;;9.20;59.80;;;4.42;85.04;95324.06;4992543;28;20076;-49
2023/12/21 05:32:36;;;;;;;1.38;0.90;;;9.20;59.70;;;4.47;84.39;95331.28;4992257;28;20048;-51
2023/12/21 05:35:04;;;;;;;2.30;0.80;;;9.20;59.80;;;4.49;84.29;95323.94;4993025;28;20025;-51
2023/12/21 05:37:30;;;;;;;0.90;0.65;;;9.30;59.80;;;4.47;83.88;95328.63;4993150;28;20755;-50
2023/12/21 05:39:56;;;;;;;1.50;0.70;;;9.30;59.60;;;4.51;84.17;95335.03;4989482;28;20028;-52
2023/12/21 05:42:22;;;;;;;1.05;0.60;;;9.30;59.60;;;4.52;83.43;95329.56;4993139;28;20061;-51
2023/12/21 05:44:47;;;;;;;0.60;0.60;;;9.30;59.50;;;4.54;83.04;95327.47;4996172;28;20067;-50
2023/12/21 05:47:13;;;;;;;1.50;0.60;;;9.30;59.30;;;4.55;82.50;95325.66;4995656;28;20076;-52
2023/12/21 05:49:39;;;;;;;1.48;0.80;;;9.30;59.20;;;4.58;81.52;95331.25;4993396;28;20129;-50
2023/12/21 05:52:05;;;;;;;0.65;0.65;;;9.30;59.00;;;4.56;81.19;95317.50;4991621;28;20030;-55
2023/12/21 05:54:31;;;;;;;0.60;0.60;;;9.40;58.90;;;4.59;81.29;95305.69;4992433;28;20025;-55
2023/12/21 05:56:58;;;;;;;1.88;0.70;;;9.40;58.90;;;4.59;82.40;95301.19;4992007;28;20026;-54
2023/12/21 05:59:24;;;;;;;1.02;0.70;;;9.40;58.90;;;4.58;82.29;95299.59;4992937;28;20024;-53
2023/12/21 06:01:49;;;;;;;0.95;0.73;;;9.40;58.90;;;4.55;81.44;95296.63;4992913;28;20101;-52
2023/12/21 06:04:15;;;;;;;2.13;0.88;;;9.40;58.80;;;4.57;82.03;95294.56;4991750;28;20528;-54
2023/12/21 06:06:46;;;;;;;2.08;0.98;;;9.40;58.70;;;4.52;81.43;95289.19;4992315;28;20405;-53
2023/12/21 06:09:12;;;;;;;1.27;0.75;;;9.40;58.70;;;4.48;82.12;95294.13;4991139;28;20049;-54
2023/12/21 06:11:38;;;;;;;0.70;0.70;;;9.40;58.60;;;4.52;82.41;95292.63;4988486;28;20029;-55
2023/12/21 06:14:04;;;;;;;1.00;0.90;;;9.40;58.60;;;4.56;82.25;95290.31;4990939;28;20037;-51
2023/12/21 06:16:29;;;;;;;2.13;1.00;;;9.40;58.70;;;4.47;83.10;95265.34;4987552;28;20018;-51
2023/12/21 06:18:55;;;;;;;2.10;0.98;;;9.40;58.70;;;4.43;82.74;95258.94;4987396;28;20057;-49
2023/12/21 06:21:23;;;;;;;3.60;1.20;;;9.40;58.60;;;4.40;82.60;95276.03;4992207;28;20037;-56
2023/12/21 06:23:49;;;;;;;1.63;1.10;;;9.30;58.50;;;4.40;83.00;95282.09;4990355;28;20028;-52
2023/12/21 06:26:15;;;;;;;3.15;1.50;;;9.30;58.60;;;4.43;82.96;95274.75;4987732;28;20018;-53
2023/12/21 06:28:41;;;;;;;3.20;1.30;;;9.30;58.50;;;4.43;82.70;95269.50;4991654;28;20481;-51
2023/12/21 06:31:08;;;;;;;1.38;1.20;;;9.30;58.40;;;4.42;83.06;95263.41;4990234;28;20040;-52
2023/12/21 06:33:34;;;;;;;3.30;1.30;;;9.30;58.40;;;4.44;83.52;95257.91;4989941;28;20118;-52
2023/12/21 06:36:00;;;;;;;1.77;1.20;;;9.30;58.40;;;4.42;83.51;95271.31;4989424;28;20136;-53
2023/12/21 06:38:26;;;;;;;1.90;1.40;;;9.30;58.50;;;4.41;83.54;95280.25;4988912;28;20029;-49
2023/12/21 06:40:52;;;;;;;3.85;1.85;;;9.30;58.50;;;4.44;84.21;95282.44;4988697;28;20032;-51
2023/12/21 06:43:19;;;;;;;2.25;1.25;;;9.30;58.60;;;4.45;84.51;95291.13;4989497;28;20025;-52
2023/12/21 06:45:47;;;;;;;2.10;1.48;;;9.30;58.70;;;4.41;85.23;95293.44;5004465;28;20025;-53
2023/12/21 06:48:13;;;;;;;1.88;1.38;;;9.30;58.70;;;4.43;85.43;95275.56;4990672;28;20017;-51
2023/12/21 06:50:39;;;;;;;2.80;1.90;;;9.30;58.70;;;4.38;85.77;95280.72;4989650;28;20068;-49
2023/12/21 06:53:05;;;;;;;1.98;1.42;;;9.30;58.80;;;4.37;87.74;95274.66;4989158;28;20060;-50
2023/12/21 06:55:31;;;;;;;1.55;1.35;;;9.30;58.90;;;4.32;88.58;95271.91;4989066;28;20018;-51
2023/12/21 06:57:57;;;;;;;1.80;1.40;;;9.30;59.10;;;4.30;88.00;95273.97;5003442;28;20029;-51
2023/12/21 07:00:23;;;;;;;2.65;1.70;;;9.20;59.10;;;4.32;87.79;95281.66;4989905;28;20046;-50
2023/12/21 07:02:48;;;;;;;1.77;1.48;;;9.20;59.20;;;4.30;88.17;95279.25;4988664;28;20022;-52
2023/12/21 07:05:14;;;;;;;2.22;1.70;;;9.20;59.30;;;4.28;88.82;95265.50;4988332;28;20049;-51
2023/12/21 07:07:40;;;;;;;2.13;1.60;;;9.20;59.40;;;4.27;89.23;95256.00;5004871;23;20145;-54
2023/12/21 07:10:07;;;;;;;2.85;1.42;;;9.20;59.40;;;4.26;89.66;95229.84;4994750;28;20056;-50
2023/12/21 07:12:33;;;;;;;2.55;1.35;;;9.20;59.50;;;4.23;90.04;95230.31;4996166;28;20022;-56
2023/12/21 07:14:59;;;;;;;1.98;1.40;;;9.20;59.60;;;4.25;90.87;95229.03;4995903;28;20038;-52
2023/12/21 07:17:25;;;;;;;8.32;1.50;;;9.20;59.70;;;4.22;92.62;95226.88;4969054;28;20017;-54
2023/12/21 07:19:51;;;;;;;3.28;1.42;;;9.10;59.90;;;4.20;93.87;95236.88;4978350;28;20057;-54
2023/12/21 07:22:17;;;;;;;1.55;1.20;;;9.10;60.10;;;4.20;93.77;95236.88;4983283;28;20038;-51
2023/12/21 07:24:42;;;;;;;3.58;1.40;;;9.00;60.30;;;4.20;93.87;95236.88;4978762;28;20022;-53
2023/12/21 07:27:08;;;;;;;2.20;1.30;;;9.00;60.70;;;4.22;93.14;95226.88;4982857;28;20448;-52
2023/12/21 07:29:35;;;;;;;2.10;1.40;;;9.00;60.80;;;4.27;94.10;95247.28;4981665;28;20466;-55
2023/12/21 07:32:01;;;;;;;2.67;1.17;;;9.00;60.90;;;4.29;93.51;95240.72;4982102;28;20049;-52
2023/12/21 07:34:28;;;;;;;2.70;1.20;;;9.00;61.00;;;4.26;92.93;95229.84;4980114;28;20034;-53
2023/12/21 07:36:54;;;;;;;1.42;0.90;;;9.00;61.10;;;4.30;92.85;95236.28;4980081;28;20028;-50
2023/12/21 07:39:20;;;;;;;3.55;1.10;;;9.00;61.10;;;4.31;92.26;95229.94;4982894;28;20034;-50
2023/12/21 07:41:46;;;;;;;2.67;1.00;;;9.10;61.20;;;4.34;91.82;95219.72;4978022;28;20022;-52
2023/12/21 07:44:12;;;;;;;2.30;1.23;;;9.10;61.00;;;4.38;92.12;95222.69;4981880;28;20032;-55
2023/12/21 07:46:38;;;;;;;1.45;0.77;;;9.20;61.10;;;4.40;91.36;95218.78;4977265;28;20436;-50
2023/12/21 07:49:04;;;;;;;1.38;1.00;;;9.20;61.00;;;4.43;92.08;95227.28;4976925;28;20445;-50
2023/12/21 07:51:30;;;;;;;1.40;1.00;;;9.20;60.90;;;4.44;91.51;95231.50;4979405;28;20045;-55
2023/12/21 07:53:55;;;;;;;1.77;1.10;;;9.30;61.60;;;4.47;91.17;95221.28;4981223;28;20038;-54
2023/12/21 07:56:21;;;;;;;2.90;1.00;;;9.30;60.70;;;4.49;91.11;95219.25;4978276;28;20615;-54
2023/12/21 07:58:47;;;;;;;2.10;0.80;;;9.40;60.70;;;4.53;91.63;95201.09;4978891;28;20041;-52
2023/12/21 08:01:13;;;;;;;1.30;1.02;;;9.40;60.70;;;4.58;91.63;95188.81;4980873;28;20017;-53
2023/12/21 08:03:39;;;;;;;1.80;1.02;;;9.40;60.70;;;4.60;91.82;95186.72;4976972;28;20526;-52
2023/12/21 08:06:05;;;;;;;1.30;0.90;;;9.50;60.60;;;4.59;92.08;95182.50;4980298;28;20079;-54
2023/12/21 08:08:31;;;;;;;0.90;0.80;;;9.50;60.60;;;4.62;92.05;95171.47;4978556;28;20129;-54
2023/12/21 08:10:57;;;;;;;2.35;1.13;;;9.50;60.60;;;4.67;92.08;95165.50;4979726;28;20121;-55
2023/12/21 08:13:23;;;;;;;2.38;0.90;;;9.50;60.60;;;4.67;91.90;95168.13;4977046;28;20077;-55
2023/12/21 08:15:49;;;;;;;2.20;1.00;;;9.60;60.70;;;4.70;92.38;95154.47;4975292;28;20564;-57
2023/12/21 08:18:15;;;;;;;2.25;0.98;;;9.60;60.60;;;4.71;93.01;95147.34;4977276;28;20030;-55
2023/12/21 08:20:42;;;;;;;1.52;1.08;;;9.70;60.70;;;4.73;92.42;95139.97;4977583;28;20535;-53
2023/12/21 08:23:08;;;;;;;3.30;1.20;;;9.70;60.60;;;4.77;92.54;95146.38;4975385;28;20116;-50
2023/12/21 08:25:34;;;;;;;1.38;0.90;;;9.80;60.60;;;4.76;92.43;95134.22;4976708;28;20040;-56
2023/12/21 08:28:00;;;;;;;1.35;0.90;;;9.80;60.60;;;4.79;92.34;95150.38;4975481;28;20198;-53
2023/12/21 08:30:26;;;;;;;2.03;0.93;;;9.80;60.50;;;4.78;92.53;95159.34;4982400;28;20249;-53
2023/12/21 08:32:52;;;;;;;0.88;0.88;;;9.80;60.50;;;4.81;91.79;95161.50;4971615;28;20092;-51
2023/12/21 08:35:18;;;;;;;4.18;1.30;;;9.90;60.60;;;4.81;92.23;95164.13;4981563;28;20499;-56
2023/12/21 08:37:44;;;;;;;2.28;1.52;;;9.90;60.50;;;4.83;91.17;95169.19;4974983;28;20535;-55
2023/12/21 08:40:11;;;;;;;2.38;1.20;;;9.80;60.30;;;4.92;91.26;95167.75;4982014;28;20103;-52
2023/12/21 08:42:36;;;;;;;2.00;1.00;;;9.90;60.80;;;4.95;91.71;95169.94;4974669;28;20515;-53
2023/12/21 08:45:04;;;;;;;1.92;1.17;;;9.90;60.30;;;4.95;92.18;95174.38;4977162;28;20018;-55
2023/12/21 08:47:32;;;;;;;1.50;0.90;;;10.00;60.30;;;4.98;90.48;95161.53;4980977;28;20184;-51
2023/12/21 08:50:03;;;;;;;2.70;1.08;;;10.00;60.30;;;5.01;90.98;95155.75;4979313;28;20054;-54
2023/12/21 08:52:29;;;;;;;2.72;1.13;;;10.00;60.10;;;4.96;89.60;95139.03;4976101;28;20034;-54
2023/12/21 08:54:55;;;;;;;1.58;1.10;;;10.00;60.10;;;5.00;89.58;95150.72;4981600;28;20095;-54
2023/12/21 08:57:24;;;;;;;2.95;1.30;;;10.10;60.00;;;4.98;89.39;95158.06;4979845;28;20061;-56
2023/12/21 08:59:51;;;;;;;2.35;1.10;;;10.10;59.80;;;5.02;89.71;95144.16;4979347;28;20116;-53
2023/12/21 09:02:17;;;;;;;1.05;1.00;;;10.10;59.80;;;5.05;89.04;95145.53;4978815;28;20026;-57
2023/12/21 09:04:43;;;;;;;1.23;1.10;;;10.10;59.80;;;5.08;89.82;95150.34;4985040;28;20025;-50
2023/12/21 09:07:10;;;;;;;1.52;1.25;;;10.10;59.80;;;5.14;89.87;95157.28;4985919;28;20041;-52
2023/12/21 09:09:36;;;;;;;1.15;0.93;;;10.10;59.80;;;5.09;89.08;95157.19;4986332;28;20022;-51
2023/12/21 09:12:02;;;;;;;3.67;1.10;;;10.10;59.70;;;5.12;89.14;95167.28;4983337;28;20037;-51
2023/12/21 09:14:29;;;;;;;1.25;1.00;;;10.10;59.70;;;5.18;89.87;95165.53;4984541;28;20033;-52
2023/12/21 09:16:55;;;;;;;1.83;0.93;;;10.10;59.80;;;5.20;90.91;95155.50;4984828;28;20034;-53
2023/12/21 09:19:21;;;;;;;2.28;0.85;;;10.10;59.90;;;5.19;92.52;95156.56;4986019;28;20040;-51
2023/12/21 09:21:47;;;;;;;1.17;0.90;;;10.10;60.80;;;5.12;93.89;95140.88;4979970;28;20033;-51
2023/12/21 09:24:13;;;;;;;1.42;0.93;;;10.00;60.40;;;5.06;95.41;95124.16;4985114;28;20014;-53
2023/12/21 09:26:39;;;;;;;2.40;1.23;;;9.90;60.70;;;5.00;97.47;95142.81;4980445;28;20053;-51
2023/12/21 09:29:05;;;;;;;1.08;0.90;;;9.90;61.40;;;5.01;99.73;95147.03;4985983;28;20376;-56
2023/12/21 09:31:32;;;;;;;1.75;0.80;;;9.80;61.90;;;4.94;99.87;95143.75;4982453;28;20022;-51
2023/12/21 09:33:59;;;;;;;1.90;1.02;;;9.70;62.40;;;4.92;100.00;95144.00;4982058;28;20533;-54
2023/12/21 09:36:25;;;;;;;1.52;0.90;;;9.70;63.00;;;4.87;100.00;95141.28;4979324;28;20080;-51
2023/12/21 09:38:52;;;;;;;1.40;0.70;;;9.70;63.40;;;4.83;100.00;95150.72;4985035;28;20033;-50
2023/12/21 09:41:18;;;;;;;1.30;0.63;;;9.60;63.70;;;4.85;100.00;95151.25;4976242;28;20025;-53
2023/12/21 09:43:49;;;;;;;1.63;0.93;;;9.60;64.00;;;4.82;100.00;95147.25;4972670;28;20026;-58
2023/12/21 09:46:16;;;;;;;2.35;0.95;;;9.60;64.40;;;4.84;100.00;95128.56;4962223;28;20041;-52
2023/12/21 09:48:44;;;;;;;0.90;0.80;;;9.60;64.50;;;4.82;100.00;95112.94;4961676;28;20044;-50
2023/12/21 09:51:20;;;;;;;1.65;0.73;;;9.60;64.70;;;4.77;100.00;95098.91;4973711;28;20041;-53
2023/12/21 09:53:49;;;;;;;2.20;0.95;;;9.60;65.00;;;4.72;100.00;95078.50;4958571;28;20032;-50
2023/12/21 09:56:18;;;;;;;1.33;0.77;;;9.60;65.30;;;4.74;100.00;95080.91;4977601;28;20026;-50
2023/12/21 09:58:48;;;;;;;1.63;0.77;;;9.50;65.40;;;4.82;100.00;95081.28;4977418;28;20041;-52
2023/12/21 10:01:14;;;;;;;1.60;0.80;;;9.60;65.50;;;4.79;100.00;95065.94;4964304;28;20021;-50
2023/12/21 10:03:40;;;;;;;0.77;0.73;;;9.60;65.60;;;4.79;100.00;95083.59;4975632;28;20049;-51
2023/12/21 10:06:07;;;;;;;0.90;0.80;;;9.60;65.60;;;4.84;100.00;95083.69;4980267;28;20053;-53
2023/12/21 10:08:33;;;;;;;0.80;0.80;;;9.60;65.60;;;4.87;100.00;95064.75;4960248;28;20037;-51
2023/12/21 10:11:03;;;;;;;1.48;0.73;;;9.70;65.70;;;4.88;100.00;95076.88;4973944;28;20388;-55
2023/12/21 10:13:29;;;;;;;3.40;0.63;;;9.70;65.70;;;4.92;100.00;95066.63;4972375;28;20305;-54
2023/12/21 10:15:59;;;;;;;1.08;0.70;;;9.80;65.70;;;4.97;100.00;95078.09;4979583;28;20039;-56
2023/12/21 10:18:26;;;;;;;1.58;0.82;;;9.80;65.70;;;5.01;100.00;95068.63;4979036;28;20167;-54
2023/12/21 10:20:55;;;;;;;1.20;0.70;;;9.80;65.60;;;5.00;100.00;95037.22;4984094;28;20026;-52
2023/12/21 10:23:21;;;;;;;1.67;0.75;;;9.90;65.60;;;5.03;100.00;95024.31;4972221;28;20099;-51
2023/12/21 10:25:50;;;;;;;1.00;0.80;;;9.90;65.60;;;5.10;100.00;95003.03;4971974;28;20720;-51
2023/12/21 10:28:15;;;;;;;3.60;0.70;;;10.00;65.60;;;5.16;100.00;95023.16;4971679;28;20037;-51
2023/12/21 10:30:41;;;;;;;0.65;0.60;;;10.00;65.40;;;5.21;100.00;95031.16;4971848;28;20030;-55